sensor_id;sensor_type;location;lat;lon;timestamp;temperature;humidity
66598;DHT22;57424;53.128;6.406;2023-03-25T11:10:30;18.40;58.50
66598;DHT22;57424;53.128;6.406;2023-03-25T11:13:00;18.30;59.50
66598;DHT22;57424;53.128;6.406;2023-03-25T11:15:33;18.40;60.00
66598;DHT22;57424;53.128;6.406;2023-03-25T11:18:03;18.50;60.10
66598;DHT22;57424;53.128;6.406;2023-03-25T11:20:36;18.60;60.10
66598;DHT22;57424;53.128;6.406;2023-03-25T11:23:15;18.70;60.00
66598;DHT22;57424;53.128;6.406;2023-03-25T11:25:42;18.80;59.80
66598;DHT22;57424;53.128;6.406;2023-03-25T11:33:35;18.90;58.80
66598;DHT22;57424;53.128;6.406;2023-03-25T11:36:29;19.00;58.80
66598;DHT22;57424;53.128;6.406;2023-03-25T11:38:58;19.00;58.10
66598;DHT22;57424;53.128;6.406;2023-03-25T11:41:27;19.10;58.30
66598;DHT22;57424;53.128;6.406;2023-03-25T11:43:54;19.20;58.10
66598;DHT22;57424;53.128;6.406;2023-03-25T11:46:20;19.20;57.90
66598;DHT22;57424;53.128;6.406;2023-03-25T11:48:47;19.20;57.70
66598;DHT22;57424;53.128;6.406;2023-03-25T11:51:19;19.20;57.50
66598;DHT22;57424;53.128;6.406;2023-03-25T11:53:48;19.30;57.40
66598;DHT22;57424;53.128;6.406;2023-03-25T11:56:19;19.30;57.20
66598;DHT22;57424;53.128;6.406;2023-03-25T11:58:47;19.30;57.00
66598;DHT22;57424;53.128;6.406;2023-03-25T12:01:27;19.40;56.90
66598;DHT22;57424;53.128;6.406;2023-03-25T12:04:13;19.40;56.60
66598;DHT22;57424;53.128;6.406;2023-03-25T12:09:17;19.40;56.20
66598;DHT22;57424;53.128;6.406;2023-03-25T12:16:56;19.50;56.00
66598;DHT22;57424;53.128;6.406;2023-03-25T12:25:05;19.50;55.80
66598;DHT22;57424;53.128;6.406;2023-03-25T12:30:20;19.50;55.70
66598;DHT22;57424;53.128;6.406;2023-03-25T12:41:34;19.50;55.00
66598;DHT22;57424;53.128;6.406;2023-03-25T12:50:20;19.50;54.90
66598;DHT22;57424;53.128;6.406;2023-03-25T13:07:27;19.50;54.50
66598;DHT22;57424;53.128;6.406;2023-03-25T13:10:16;19.50;54.80
66598;DHT22;57424;53.128;6.406;2023-03-25T13:13:00;19.50;54.60
66598;DHT22;57424;53.128;6.406;2023-03-25T13:15:31;19.50;54.40
66598;DHT22;57424;53.128;6.406;2023-03-25T13:18:23;19.50;54.70
66598;DHT22;57424;53.128;6.406;2023-03-25T13:21:07;19.50;54.70
66598;DHT22;57424;53.128;6.406;2023-03-25T13:23:36;19.50;54.60
66598;DHT22;57424;53.128;6.406;2023-03-25T13:26:09;19.40;54.60
66598;DHT22;57424;53.128;6.406;2023-03-25T13:31:37;19.50;54.50
66598;DHT22;57424;53.128;6.406;2023-03-25T13:34:18;19.50;54.60
66598;DHT22;57424;53.128;6.406;2023-03-25T13:36:52;19.50;55.00
66598;DHT22;57424;53.128;6.406;2023-03-25T13:39:24;19.60;55.10
66598;DHT22;57424;53.128;6.406;2023-03-25T13:42:04;19.60;55.10
66598;DHT22;57424;53.128;6.406;2023-03-25T13:44:36;19.60;54.90
66598;DHT22;57424;53.128;6.406;2023-03-25T13:47:12;19.60;55.00
66598;DHT22;57424;53.128;6.406;2023-03-25T13:49:50;19.70;55.00
66598;DHT22;57424;53.128;6.406;2023-03-25T13:52:16;19.60;55.00
66598;DHT22;57424;53.128;6.406;2023-03-25T13:54:43;19.70;55.10
66598;DHT22;57424;53.128;6.406;2023-03-25T14:02:44;19.70;55.00
66598;DHT22;57424;53.128;6.406;2023-03-25T14:10:53;19.70;55.10
66598;DHT22;57424;53.128;6.406;2023-03-25T14:13:29;19.70;55.20
66598;DHT22;57424;53.128;6.406;2023-03-25T14:16:02;19.70;55.10
66598;DHT22;57424;53.128;6.406;2023-03-25T14:18:30;19.70;55.00
66598;DHT22;57424;53.128;6.406;2023-03-25T14:20:57;19.70;55.00
66598;DHT22;57424;53.128;6.406;2023-03-25T14:23:35;19.70;54.90
66598;DHT22;57424;53.128;6.406;2023-03-25T14:26:03;19.70;54.90
66598;DHT22;57424;53.128;6.406;2023-03-25T14:28:36;19.60;54.70
66598;DHT22;57424;53.128;6.406;2023-03-25T14:39:10;19.60;54.60
66598;DHT22;57424;53.128;6.406;2023-03-25T14:44:31;19.70;54.50
66598;DHT22;57424;53.128;6.406;2023-03-25T14:52:50;19.70;54.40
66598;DHT22;57424;53.128;6.406;2023-03-25T14:55:25;19.70;54.60
66598;DHT22;57424;53.128;6.406;2023-03-25T14:58:03;19.70;54.50
66598;DHT22;57424;53.128;6.406;2023-03-25T15:00:33;19.70;54.50
66598;DHT22;57424;53.128;6.406;2023-03-25T15:03:11;19.70;54.50
66598;DHT22;57424;53.128;6.406;2023-03-25T15:05:41;19.70;54.40
66598;DHT22;57424;53.128;6.406;2023-03-25T15:08:11;19.70;54.40
66598;DHT22;57424;53.128;6.406;2023-03-25T15:10:43;19.70;54.30
66598;DHT22;57424;53.128;6.406;2023-03-25T15:13:15;19.70;54.30
66598;DHT22;57424;53.128;6.406;2023-03-25T15:18:12;19.70;54.30
66598;DHT22;57424;53.128;6.406;2023-03-25T15:26:02;19.70;54.20
66598;DHT22;57424;53.128;6.406;2023-03-25T15:31:24;19.70;53.90
66598;DHT22;57424;53.128;6.406;2023-03-25T15:34:14;19.80;54.10
66598;DHT22;57424;53.128;6.406;2023-03-25T15:39:53;19.80;54.00
66598;DHT22;57424;53.128;6.406;2023-03-25T15:54:19;19.70;53.80
66598;DHT22;57424;53.128;6.406;2023-03-25T15:56:51;19.70;53.90
66598;DHT22;57424;53.128;6.406;2023-03-25T15:59:44;19.70;54.00
66598;DHT22;57424;53.128;6.406;2023-03-25T16:02:44;19.70;53.80
66598;DHT22;57424;53.128;6.406;2023-03-25T16:05:15;19.70;53.80
66598;DHT22;57424;53.128;6.406;2023-03-25T16:07:41;19.60;53.90
66598;DHT22;57424;53.128;6.406;2023-03-25T16:10:25;19.60;53.80
66598;DHT22;57424;53.128;6.406;2023-03-25T16:12:52;19.60;53.80
66598;DHT22;57424;53.128;6.406;2023-03-25T16:15:24;19.60;53.80
66598;DHT22;57424;53.128;6.406;2023-03-25T16:17:50;19.60;53.80
66598;DHT22;57424;53.128;6.406;2023-03-25T16:20:21;19.50;53.70
66598;DHT22;57424;53.128;6.406;2023-03-25T16:22:50;19.50;53.70
66598;DHT22;57424;53.128;6.406;2023-03-25T16:25:21;19.50;53.70
66598;DHT22;57424;53.128;6.406;2023-03-25T16:27:55;19.50;53.70
66598;DHT22;57424;53.128;6.406;2023-03-25T16:30:31;19.50;53.60
66598;DHT22;57424;53.128;6.406;2023-03-25T16:35:34;19.50;53.60
66598;DHT22;57424;53.128;6.406;2023-03-25T16:38:01;19.40;53.60
66598;DHT22;57424;53.128;6.406;2023-03-25T16:40:30;19.40;53.60
66598;DHT22;57424;53.128;6.406;2023-03-25T16:43:04;19.40;53.60
66598;DHT22;57424;53.128;6.406;2023-03-25T16:45:31;19.40;53.60
66598;DHT22;57424;53.128;6.406;2023-03-25T16:48:02;19.40;53.60
66598;DHT22;57424;53.128;6.406;2023-03-25T16:50:29;19.40;53.60
66598;DHT22;57424;53.128;6.406;2023-03-25T16:52:55;19.40;53.60
66598;DHT22;57424;53.128;6.406;2023-03-25T16:55:29;19.30;53.60
66598;DHT22;57424;53.128;6.406;2023-03-25T16:57:58;19.30;53.60
66598;DHT22;57424;53.128;6.406;2023-03-25T17:00:37;19.30;53.60
66598;DHT22;57424;53.128;6.406;2023-03-25T17:03:03;19.30;53.50
66598;DHT22;57424;53.128;6.406;2023-03-25T17:05:30;19.30;53.60
66598;DHT22;57424;53.128;6.406;2023-03-25T17:07:59;19.30;53.60
66598;DHT22;57424;53.128;6.406;2023-03-25T17:10:41;19.20;53.60
66598;DHT22;57424;53.128;6.406;2023-03-25T17:13:13;19.20;53.60
66598;DHT22;57424;53.128;6.406;2023-03-25T17:15:41;19.20;53.70
66598;DHT22;57424;53.128;6.406;2023-03-25T17:18:12;19.20;53.70
66598;DHT22;57424;53.128;6.406;2023-03-25T17:20:41;19.20;53.60
66598;DHT22;57424;53.128;6.406;2023-03-25T17:25:52;19.20;53.60
66598;DHT22;57424;53.128;6.406;2023-03-25T17:31:31;19.10;53.50
66598;DHT22;57424;53.128;6.406;2023-03-25T17:36:23;19.10;53.60
66598;DHT22;57424;53.128;6.406;2023-03-25T17:38:50;19.10;53.60
66598;DHT22;57424;53.128;6.406;2023-03-25T17:41:19;19.10;53.60
66598;DHT22;57424;53.128;6.406;2023-03-25T17:43:50;19.10;53.70
66598;DHT22;57424;53.128;6.406;2023-03-25T17:46:26;19.10;53.70
66598;DHT22;57424;53.128;6.406;2023-03-25T17:48:52;19.10;53.70
66598;DHT22;57424;53.128;6.406;2023-03-25T17:51:22;19.10;53.70
66598;DHT22;57424;53.128;6.406;2023-03-25T17:53:49;19.10;53.70
66598;DHT22;57424;53.128;6.406;2023-03-25T17:56:18;19.00;53.70
66598;DHT22;57424;53.128;6.406;2023-03-25T17:58:44;19.00;53.70
66598;DHT22;57424;53.128;6.406;2023-03-25T18:01:13;19.00;53.70
66598;DHT22;57424;53.128;6.406;2023-03-25T18:03:39;19.00;53.70
66598;DHT22;57424;53.128;6.406;2023-03-25T18:06:05;19.00;53.80
66598;DHT22;57424;53.128;6.406;2023-03-25T18:08:30;19.00;53.80
66598;DHT22;57424;53.128;6.406;2023-03-25T18:10:56;19.00;53.80
66598;DHT22;57424;53.128;6.406;2023-03-25T18:13:23;19.00;53.80
66598;DHT22;57424;53.128;6.406;2023-03-25T18:15:50;19.00;53.80
66598;DHT22;57424;53.128;6.406;2023-03-25T18:18:19;19.00;54.50
66598;DHT22;57424;53.128;6.406;2023-03-25T18:20:45;19.00;53.80
66598;DHT22;57424;53.128;6.406;2023-03-25T18:23:15;18.90;53.70
66598;DHT22;57424;53.128;6.406;2023-03-25T18:25:41;18.90;53.80
66598;DHT22;57424;53.128;6.406;2023-03-25T18:28:09;18.90;53.70
66598;DHT22;57424;53.128;6.406;2023-03-25T18:30:38;18.90;53.60
66598;DHT22;57424;53.128;6.406;2023-03-25T18:33:06;18.90;53.80
66598;DHT22;57424;53.128;6.406;2023-03-25T18:35:31;18.90;53.80
66598;DHT22;57424;53.128;6.406;2023-03-25T18:37:57;18.90;53.80
66598;DHT22;57424;53.128;6.406;2023-03-25T18:40:25;18.90;53.80
66598;DHT22;57424;53.128;6.406;2023-03-25T18:42:53;18.90;53.80
66598;DHT22;57424;53.128;6.406;2023-03-25T18:45:21;18.90;53.80
66598;DHT22;57424;53.128;6.406;2023-03-25T18:47:47;18.90;53.80
66598;DHT22;57424;53.128;6.406;2023-03-25T18:50:31;18.90;53.90
66598;DHT22;57424;53.128;6.406;2023-03-25T18:52:57;18.90;53.80
66598;DHT22;57424;53.128;6.406;2023-03-25T18:55:25;18.80;53.80
66598;DHT22;57424;53.128;6.406;2023-03-25T18:57:52;18.80;53.90
66598;DHT22;57424;53.128;6.406;2023-03-25T19:02:49;18.80;53.80
66598;DHT22;57424;53.128;6.406;2023-03-25T19:05:14;18.80;53.90
66598;DHT22;57424;53.128;6.406;2023-03-25T19:07:41;18.80;53.90
66598;DHT22;57424;53.128;6.406;2023-03-25T19:10:13;18.80;53.90
66598;DHT22;57424;53.128;6.406;2023-03-25T19:12:39;18.80;53.90
66598;DHT22;57424;53.128;6.406;2023-03-25T19:15:05;18.80;54.00
66598;DHT22;57424;53.128;6.406;2023-03-25T19:17:31;18.80;54.00
66598;DHT22;57424;53.128;6.406;2023-03-25T19:19:56;18.80;54.00
66598;DHT22;57424;53.128;6.406;2023-03-25T19:22:22;18.80;54.00
66598;DHT22;57424;53.128;6.406;2023-03-25T19:24:49;18.80;54.00
66598;DHT22;57424;53.128;6.406;2023-03-25T19:27:15;18.80;54.00
66598;DHT22;57424;53.128;6.406;2023-03-25T19:29:40;18.80;54.00
66598;DHT22;57424;53.128;6.406;2023-03-25T19:32:06;18.80;54.00
66598;DHT22;57424;53.128;6.406;2023-03-25T19:34:32;18.80;54.00
66598;DHT22;57424;53.128;6.406;2023-03-25T19:36:57;18.80;54.00
66598;DHT22;57424;53.128;6.406;2023-03-25T19:39:27;18.80;54.00
66598;DHT22;57424;53.128;6.406;2023-03-25T19:41:53;18.80;54.00
66598;DHT22;57424;53.128;6.406;2023-03-25T19:44:19;18.70;54.00
66598;DHT22;57424;53.128;6.406;2023-03-25T19:46:45;18.80;54.10
66598;DHT22;57424;53.128;6.406;2023-03-25T19:49:11;18.70;54.00
66598;DHT22;57424;53.128;6.406;2023-03-25T19:51:37;18.70;54.10
66598;DHT22;57424;53.128;6.406;2023-03-25T19:54:02;18.70;54.10
66598;DHT22;57424;53.128;6.406;2023-03-25T19:56:29;18.70;54.10
66598;DHT22;57424;53.128;6.406;2023-03-25T19:58:55;18.70;54.10
66598;DHT22;57424;53.128;6.406;2023-03-25T20:01:20;18.70;54.10
66598;DHT22;57424;53.128;6.406;2023-03-25T20:03:46;18.70;54.10
66598;DHT22;57424;53.128;6.406;2023-03-25T20:06:12;18.70;54.10
66598;DHT22;57424;53.128;6.406;2023-03-25T20:08:38;18.70;54.10
66598;DHT22;57424;53.128;6.406;2023-03-25T20:11:08;18.70;54.10
66598;DHT22;57424;53.128;6.406;2023-03-25T20:13:34;18.70;54.10
66598;DHT22;57424;53.128;6.406;2023-03-25T20:16:00;18.70;54.10
66598;DHT22;57424;53.128;6.406;2023-03-25T20:18:26;18.70;54.10
66598;DHT22;57424;53.128;6.406;2023-03-25T20:20:52;18.70;54.10
66598;DHT22;57424;53.128;6.406;2023-03-25T20:23:18;18.70;54.10
66598;DHT22;57424;53.128;6.406;2023-03-25T20:25:43;18.70;54.10
66598;DHT22;57424;53.128;6.406;2023-03-25T20:28:09;18.60;54.10
66598;DHT22;57424;53.128;6.406;2023-03-25T20:30:35;18.60;54.00
66598;DHT22;57424;53.128;6.406;2023-03-25T20:33:01;18.60;54.10
66598;DHT22;57424;53.128;6.406;2023-03-25T20:35:27;18.60;54.00
66598;DHT22;57424;53.128;6.406;2023-03-25T20:37:53;18.60;54.00
66598;DHT22;57424;53.128;6.406;2023-03-25T20:40:19;18.60;54.00
66598;DHT22;57424;53.128;6.406;2023-03-25T20:42:46;18.60;54.00
66598;DHT22;57424;53.128;6.406;2023-03-25T20:45:14;18.60;54.10
66598;DHT22;57424;53.128;6.406;2023-03-25T20:47:40;18.60;54.10
66598;DHT22;57424;53.128;6.406;2023-03-25T20:50:07;18.60;54.20
66598;DHT22;57424;53.128;6.406;2023-03-25T20:52:33;18.60;54.30
66598;DHT22;57424;53.128;6.406;2023-03-25T20:55:00;18.70;54.40
66598;DHT22;57424;53.128;6.406;2023-03-25T20:57:26;18.70;54.60
66598;DHT22;57424;53.128;6.406;2023-03-25T20:59:51;18.70;54.60
66598;DHT22;57424;53.128;6.406;2023-03-25T21:02:18;18.70;54.50
66598;DHT22;57424;53.128;6.406;2023-03-25T21:04:44;18.70;54.50
66598;DHT22;57424;53.128;6.406;2023-03-25T21:07:10;18.70;54.60
66598;DHT22;57424;53.128;6.406;2023-03-25T21:09:36;18.80;54.40
66598;DHT22;57424;53.128;6.406;2023-03-25T21:12:02;18.80;54.40
66598;DHT22;57424;53.128;6.406;2023-03-25T21:14:28;18.80;54.40
66598;DHT22;57424;53.128;6.406;2023-03-25T21:16:53;18.80;54.30
66598;DHT22;57424;53.128;6.406;2023-03-25T21:19:19;18.80;54.20
66598;DHT22;57424;53.128;6.406;2023-03-25T21:21:45;18.90;54.10
66598;DHT22;57424;53.128;6.406;2023-03-25T21:24:11;18.80;54.00
66598;DHT22;57424;53.128;6.406;2023-03-25T21:26:38;18.90;53.90
66598;DHT22;57424;53.128;6.406;2023-03-25T21:29:03;18.90;53.80
66598;DHT22;57424;53.128;6.406;2023-03-25T21:31:29;18.90;53.60
66598;DHT22;57424;53.128;6.406;2023-03-25T21:33:56;19.00;53.50
66598;DHT22;57424;53.128;6.406;2023-03-25T21:36:24;19.00;53.40
66598;DHT22;57424;53.128;6.406;2023-03-25T21:38:54;19.00;53.30
66598;DHT22;57424;53.128;6.406;2023-03-25T21:41:21;19.00;53.20
66598;DHT22;57424;53.128;6.406;2023-03-25T21:43:46;19.10;53.10
66598;DHT22;57424;53.128;6.406;2023-03-25T21:46:12;19.10;53.00
66598;DHT22;57424;53.128;6.406;2023-03-25T21:48:39;19.10;52.90
66598;DHT22;57424;53.128;6.406;2023-03-25T21:51:11;19.10;52.80
66598;DHT22;57424;53.128;6.406;2023-03-25T21:53:43;19.10;52.70
66598;DHT22;57424;53.128;6.406;2023-03-25T21:56:19;19.10;52.60
66598;DHT22;57424;53.128;6.406;2023-03-25T21:58:46;19.10;53.20
66598;DHT22;57424;53.128;6.406;2023-03-25T22:01:17;19.10;52.50
66598;DHT22;57424;53.128;6.406;2023-03-25T22:03:47;19.10;52.40
66598;DHT22;57424;53.128;6.406;2023-03-25T22:06:17;19.20;52.40
66598;DHT22;57424;53.128;6.406;2023-03-25T22:08:44;19.10;52.40
66598;DHT22;57424;53.128;6.406;2023-03-25T22:11:15;19.10;52.30
66598;DHT22;57424;53.128;6.406;2023-03-25T22:13:42;19.20;52.20
66598;DHT22;57424;53.128;6.406;2023-03-25T22:16:09;19.20;52.20
66598;DHT22;57424;53.128;6.406;2023-03-25T22:18:36;19.20;52.10
66598;DHT22;57424;53.128;6.406;2023-03-25T22:21:17;19.20;52.10
66598;DHT22;57424;53.128;6.406;2023-03-25T22:23:44;19.20;52.00
66598;DHT22;57424;53.128;6.406;2023-03-25T22:26:11;19.10;52.00
66598;DHT22;57424;53.128;6.406;2023-03-25T22:28:38;19.20;52.10
66598;DHT22;57424;53.128;6.406;2023-03-25T22:31:09;19.10;51.90
66598;DHT22;57424;53.128;6.406;2023-03-25T22:33:35;19.10;51.90
66598;DHT22;57424;53.128;6.406;2023-03-25T22:36:02;19.10;52.00
66598;DHT22;57424;53.128;6.406;2023-03-25T22:38:28;19.10;51.90
66598;DHT22;57424;53.128;6.406;2023-03-25T22:40:54;19.10;52.00
66598;DHT22;57424;53.128;6.406;2023-03-25T22:43:19;19.10;51.90
66598;DHT22;57424;53.128;6.406;2023-03-25T22:45:45;19.10;52.00
66598;DHT22;57424;53.128;6.406;2023-03-25T22:48:10;19.00;51.90
66598;DHT22;57424;53.128;6.406;2023-03-25T22:50:36;19.00;51.90
66598;DHT22;57424;53.128;6.406;2023-03-25T22:53:02;19.00;52.00
66598;DHT22;57424;53.128;6.406;2023-03-25T22:55:27;19.00;52.00
66598;DHT22;57424;53.128;6.406;2023-03-25T22:57:53;18.90;52.00
66598;DHT22;57424;53.128;6.406;2023-03-25T23:00:18;18.90;52.00
66598;DHT22;57424;53.128;6.406;2023-03-25T23:02:45;18.90;52.10
66598;DHT22;57424;53.128;6.406;2023-03-25T23:05:11;18.90;52.10
66598;DHT22;57424;53.128;6.406;2023-03-25T23:07:39;18.90;52.10
66598;DHT22;57424;53.128;6.406;2023-03-25T23:10:05;18.80;52.10
66598;DHT22;57424;53.128;6.406;2023-03-25T23:12:30;18.80;52.10
66598;DHT22;57424;53.128;6.406;2023-03-25T23:14:56;18.80;52.20
66598;DHT22;57424;53.128;6.406;2023-03-25T23:17:22;18.80;52.20
66598;DHT22;57424;53.128;6.406;2023-03-25T23:19:48;18.70;52.10
66598;DHT22;57424;53.128;6.406;2023-03-25T23:22:14;18.70;52.20
66598;DHT22;57424;53.128;6.406;2023-03-25T23:24:41;18.70;52.20
66598;DHT22;57424;53.128;6.406;2023-03-25T23:27:08;18.70;52.30
66598;DHT22;57424;53.128;6.406;2023-03-25T23:29:35;18.60;52.20
66598;DHT22;57424;53.128;6.406;2023-03-25T23:32:01;18.60;52.30
66598;DHT22;57424;53.128;6.406;2023-03-25T23:34:27;18.60;52.30
66598;DHT22;57424;53.128;6.406;2023-03-25T23:36:53;18.60;52.30
66598;DHT22;57424;53.128;6.406;2023-03-25T23:39:19;18.60;52.40
66598;DHT22;57424;53.128;6.406;2023-03-25T23:41:47;18.60;52.40
66598;DHT22;57424;53.128;6.406;2023-03-25T23:44:13;18.60;52.40
66598;DHT22;57424;53.128;6.406;2023-03-25T23:46:39;18.50;52.40
66598;DHT22;57424;53.128;6.406;2023-03-25T23:49:06;18.50;52.40
66598;DHT22;57424;53.128;6.406;2023-03-25T23:51:34;18.50;52.40
66598;DHT22;57424;53.128;6.406;2023-03-25T23:54:01;18.50;53.10
66598;DHT22;57424;53.128;6.406;2023-03-25T23:56:27;18.50;52.40
66598;DHT22;57424;53.128;6.406;2023-03-25T23:58:53;18.50;52.40
